createdAt,value
2022-11-18T00:00:23.506Z,176.27
2022-11-18T00:02:29.653Z,179.96
2022-11-18T00:04:35.479Z,168.91
2022-11-18T00:06:42.457Z,175.31
2022-11-18T00:08:50.887Z,167.82
2022-11-18T00:10:59.337Z,145.08
2022-11-18T00:13:18.258Z,151.65
2022-11-18T00:15:28.953Z,150.66
2022-11-18T00:17:37.191Z,138.51
2022-11-18T00:19:44.106Z,142.36
2022-11-18T00:21:50.023Z,141.01
2022-11-18T00:23:55.855Z,136.53
2022-11-18T00:26:09.853Z,138.90
2022-11-18T00:28:15.620Z,138.22
2022-11-18T00:30:23.065Z,137.81
2022-11-18T00:32:29.631Z,137.36
2022-11-18T00:34:35.425Z,146.52
2022-11-18T00:36:43.047Z,140.75
2022-11-18T00:38:49.585Z,197.19
2022-11-18T00:41:03.161Z,202.04
2022-11-18T00:43:08.913Z,149.13
2022-11-18T00:45:15.585Z,148.77
2022-11-18T00:47:21.397Z,144.99
2022-11-18T00:49:28.042Z,160.88
2022-11-18T00:51:34.538Z,201.05
2022-11-18T00:53:40.249Z,191.70
2022-11-18T00:55:46.269Z,191.21
2022-11-18T00:57:52.923Z,194.57
2022-11-18T01:00:09.210Z,206.26
2022-11-18T01:02:33.374Z,199.02
2022-11-18T01:04:39.976Z,197.61
2022-11-18T01:06:45.692Z,177.19
2022-11-18T01:08:51.484Z,141.38
2022-11-18T01:11:18.058Z,158.82
2022-11-18T01:13:24.048Z,142.85
2022-11-18T01:15:32.527Z,137.03
2022-11-18T01:17:45.887Z,127.68
2022-11-18T01:19:51.856Z,136.89
2022-11-18T01:22:09.236Z,138.24
2022-11-18T01:24:22.288Z,137.33
2022-11-18T01:26:28.020Z,133.34
2022-11-18T01:28:33.829Z,132.27
2022-11-18T01:30:44.868Z,141.94
2022-11-18T01:48:08.806Z,213.13
2022-11-18T01:50:19.639Z,214.60
2022-11-18T01:52:26.916Z,205.91
2022-11-18T01:54:39.404Z,212.17
2022-11-18T01:56:53.175Z,211.22
2022-11-18T01:59:08.550Z,215.16
2022-11-18T02:01:17.155Z,206.46
2022-11-18T02:03:33.524Z,212.81
2022-11-18T02:05:46.127Z,200.92
2022-11-18T02:07:54.222Z,202.25
2022-11-18T02:10:11.774Z,215.31
2022-11-18T02:15:14.480Z,164.80
2022-11-18T02:17:44.285Z,158.19
2022-11-18T02:20:21.893Z,152.37
2022-11-18T02:23:00.898Z,151.58
2022-11-18T02:25:24.973Z,162.29
2022-11-18T02:28:20.627Z,158.50
2022-11-18T02:30:29.077Z,157.72
2022-11-18T02:32:45.049Z,149.66
2022-11-18T02:35:05.546Z,150.60
2022-11-18T02:37:25.115Z,147.17
2022-11-18T02:39:41.371Z,160.39
2022-11-18T02:41:52.666Z,145.03
2022-11-18T02:44:07.663Z,143.75
2022-11-18T02:46:26.920Z,136.61
2022-11-18T04:35:23.517Z,165.90
2022-11-18T04:37:30.339Z,160.95
2022-11-18T04:39:36.381Z,163.85
2022-11-18T04:41:54.457Z,157.60
2022-11-18T04:44:13.356Z,169.88
2022-11-18T04:46:19.251Z,174.99
2022-11-18T04:48:27.034Z,172.52
2022-11-18T04:50:42.866Z,174.67
2022-11-18T04:52:48.586Z,175.30
2022-11-18T04:54:54.257Z,175.96
2022-11-18T04:57:01.438Z,170.44
2022-11-18T04:59:08.895Z,182.72
2022-11-18T05:01:14.674Z,185.78
2022-11-18T05:03:21.208Z,192.43
2022-11-18T05:05:26.935Z,190.60
2022-11-18T05:07:35.252Z,186.86
2022-11-18T05:09:41.807Z,188.84
2022-11-18T05:12:01.033Z,184.85
2022-11-18T05:14:06.792Z,184.75
2022-11-18T05:16:13.321Z,176.31
2022-11-18T05:18:19.185Z,188.43
2022-11-18T05:20:25.014Z,186.51
2022-11-18T05:22:40.854Z,177.62
2022-11-18T05:24:49.952Z,183.71
2022-11-18T05:26:56.168Z,181.70
2022-11-18T05:29:09.909Z,184.86
2022-11-18T05:31:19.540Z,197.78
2022-11-18T05:33:32.768Z,201.49
2022-11-18T05:35:40.626Z,201.19
2022-11-18T05:37:48.966Z,164.33
2022-11-18T05:39:54.778Z,157.87
2022-11-18T05:42:19.888Z,164.65
2022-11-18T05:44:28.539Z,159.21
2022-11-18T05:46:35.599Z,159.68
2022-11-18T05:48:42.253Z,163.19
2022-11-18T05:50:54.488Z,174.63
2022-11-18T05:53:02.966Z,173.74
2022-11-18T05:55:12.275Z,170.89
2022-11-18T05:57:18.107Z,173.86
2022-11-18T05:59:24.595Z,171.47
2022-11-18T06:01:40.563Z,175.20
2022-11-18T06:03:46.913Z,175.67
2022-11-18T06:05:56.200Z,175.54
2022-11-18T06:08:12.751Z,176.23
2022-11-18T06:10:27.683Z,180.29
2022-11-18T06:12:48.444Z,181.78
2022-11-18T06:15:03.892Z,180.77
2022-11-18T06:17:21.963Z,189.16
2022-11-18T06:19:34.956Z,187.85
2022-11-18T06:21:41.758Z,190.98
2022-11-18T06:23:51.311Z,196.66
2022-11-18T06:26:02.468Z,196.92
2022-11-18T06:28:09.309Z,191.57
2022-11-18T06:30:17.201Z,186.89
2022-11-18T06:32:29.610Z,195.30
2022-11-18T06:34:41.247Z,197.14
2022-11-18T06:36:47.716Z,204.33
2022-11-18T06:38:56.131Z,206.71
2022-11-18T06:41:09.599Z,205.89
2022-11-18T06:43:28.564Z,208.76
2022-11-18T06:45:34.609Z,220.34
2022-11-18T06:47:38.691Z,225.60
2022-11-18T06:49:44.502Z,220.70
2022-11-18T06:51:50.296Z,213.98
2022-11-18T06:53:59.789Z,215.73
2022-11-18T06:56:20.053Z,208.48
2022-11-18T06:58:25.745Z,214.61
2022-11-18T07:00:32.378Z,211.94
2022-11-18T07:02:39.930Z,214.91
2022-11-18T07:04:45.651Z,206.59
2022-11-18T07:06:52.499Z,213.93
2022-11-18T07:09:03.852Z,212.76
2022-11-18T07:11:14.781Z,205.42
2022-11-18T07:13:21.347Z,193.84
2022-11-18T07:15:42.489Z,208.57
2022-11-18T07:17:48.171Z,206.16
2022-11-18T07:19:56.525Z,201.91
2022-11-18T07:22:02.470Z,199.90
2022-11-18T07:24:18.729Z,207.82
2022-11-18T07:26:26.244Z,201.65
2022-11-18T07:28:33.745Z,191.39
2022-11-18T07:30:39.494Z,192.69
2022-11-18T07:32:46.023Z,214.24
2022-11-18T07:34:55.626Z,222.47
2022-11-18T07:37:01.345Z,218.86
2022-11-18T07:39:11.569Z,214.06
2022-11-18T07:41:20.072Z,193.74
2022-11-18T07:43:25.939Z,205.15
2022-11-18T07:45:32.647Z,199.02
2022-11-18T07:47:38.408Z,188.70
2022-11-18T07:49:44.227Z,170.95
2022-11-18T07:51:50.769Z,189.07
2022-11-18T07:53:57.507Z,189.26
2022-11-18T07:56:13.495Z,186.15
2022-11-18T07:58:20.052Z,187.07
2022-11-18T08:00:26.434Z,200.50
2022-11-18T08:02:32.360Z,193.54
2022-11-18T08:04:40.979Z,196.93
2022-11-18T08:06:46.751Z,185.08
2022-11-18T08:08:52.556Z,209.62
2022-11-18T08:11:00.104Z,198.37
2022-11-18T08:13:08.510Z,177.43
2022-11-18T08:15:20.638Z,164.15
2022-11-18T08:17:27.304Z,150.75
2022-11-18T08:19:37.516Z,154.45
2022-11-18T08:21:43.279Z,165.73
2022-11-18T08:23:54.205Z,169.51
2022-11-18T08:26:07.092Z,170.96
2022-11-18T08:28:17.704Z,168.75
2022-11-18T08:30:24.655Z,188.29
2022-11-18T08:32:30.780Z,206.51
2022-11-18T08:34:36.716Z,209.12
2022-11-18T08:36:43.773Z,213.84
2022-11-18T08:38:49.440Z,184.24
2022-11-18T08:40:55.895Z,199.81
2022-11-18T08:43:02.391Z,208.79
2022-11-18T08:45:12.290Z,221.35
2022-11-18T08:47:20.875Z,195.90
2022-11-18T08:49:32.235Z,206.89
2022-11-18T08:51:38.255Z,191.06
2022-11-18T08:53:43.970Z,194.11
2022-11-18T08:55:59.580Z,184.99
2022-11-18T08:58:05.305Z,188.86
2022-11-18T09:00:16.511Z,197.44
2022-11-18T09:02:26.774Z,193.90
2022-11-18T09:04:32.748Z,185.03
2022-11-18T09:06:46.462Z,187.91
2022-11-18T09:08:53.207Z,182.47
2022-11-18T09:10:58.986Z,167.54
2022-11-18T09:13:25.271Z,165.65
2022-11-18T09:15:36.946Z,166.65
2022-11-18T09:17:42.644Z,178.24
2022-11-18T09:19:48.643Z,185.05
2022-11-18T09:22:02.923Z,196.56
2022-11-18T09:24:17.076Z,198.73
2022-11-18T09:26:26.719Z,199.27
2022-11-18T09:28:36.211Z,179.87
2022-11-18T09:30:46.326Z,202.23
2022-11-18T09:32:58.953Z,173.61
2022-11-18T09:35:05.990Z,197.46
2022-11-18T09:39:16.359Z,188.34
2022-11-18T09:41:46.784Z,209.09
2022-11-18T09:44:16.798Z,211.86
2022-11-18T09:46:36.861Z,223.48
2022-11-18T09:48:55.048Z,209.15
2022-11-18T09:51:01.464Z,204.26
2022-11-18T09:53:22.118Z,192.92
2022-11-18T09:55:33.470Z,204.59
2022-11-18T09:57:46.963Z,200.38
2022-11-18T09:59:54.961Z,200.48
2022-11-18T10:02:29.875Z,185.95
2022-11-18T10:04:35.584Z,198.97
2022-11-18T10:06:42.295Z,206.84
2022-11-18T10:09:16.366Z,210.41
2022-11-18T10:11:31.920Z,219.75
2022-11-18T10:13:58.582Z,243.70
2022-11-18T10:16:30.665Z,222.12
2022-11-18T10:19:00.334Z,204.57
2022-11-18T10:21:27.553Z,185.36
2022-11-18T10:23:54.094Z,201.72
2022-11-18T10:25:59.959Z,193.54
2022-11-18T10:28:29.701Z,191.80
2022-11-18T10:30:35.822Z,205.50
2022-11-18T10:32:58.109Z,202.20
2022-11-18T10:35:04.611Z,204.92
2022-11-18T10:37:38.655Z,200.72
2022-11-18T10:39:56.255Z,221.42
2022-11-18T10:42:09.775Z,223.78
2022-11-18T10:44:40.329Z,222.91
2022-11-18T10:46:46.840Z,227.62
2022-11-18T10:49:19.016Z,273.55
2022-11-18T10:51:28.022Z,282.15
2022-11-18T10:53:39.163Z,290.55
2022-11-18T10:56:01.122Z,293.34
2022-11-18T10:58:22.234Z,294.36
2022-11-18T11:00:48.647Z,286.18
2022-11-18T11:02:56.394Z,287.40
2022-11-18T11:05:07.495Z,288.15
2022-11-18T11:07:32.284Z,300.41
2022-11-18T11:09:45.247Z,327.57
2022-11-18T11:12:04.980Z,301.97
2022-11-18T11:14:26.503Z,302.46
2022-11-18T11:16:50.993Z,304.26
2022-11-18T11:19:05.297Z,283.86
2022-11-18T11:21:17.793Z,285.68
2022-11-18T11:23:28.138Z,280.47
2022-11-18T11:28:30.535Z,292.86
2022-11-18T11:30:49.207Z,294.74
2022-11-18T11:33:24.996Z,299.22
2022-11-18T11:35:45.733Z,294.70
2022-11-18T11:37:58.893Z,307.27
2022-11-18T11:40:29.608Z,320.27
2022-11-18T11:42:59.126Z,321.01
2022-11-18T11:45:27.033Z,330.55
2022-11-18T11:47:57.166Z,328.09
2022-11-18T11:50:25.547Z,322.69
2022-11-18T11:52:48.403Z,314.72
2022-11-18T11:55:18.765Z,334.12
2022-11-18T11:57:48.252Z,299.12
2022-11-18T12:00:08.030Z,302.52
2022-11-18T12:02:56.625Z,289.80
2022-11-18T12:05:24.276Z,288.24
2022-11-18T12:07:41.321Z,296.71
2022-11-18T12:10:23.989Z,304.41
2022-11-18T12:12:47.818Z,284.65
2022-11-18T12:15:07.909Z,289.00
2022-11-18T12:17:29.003Z,296.50
2022-11-18T12:19:42.540Z,290.62
2022-11-18T12:22:07.829Z,295.08
2022-11-18T12:24:37.172Z,285.09
2022-11-18T12:26:43.997Z,301.73
2022-11-18T12:28:50.219Z,310.86
2022-11-18T12:31:39.069Z,288.72
2022-11-18T12:33:48.320Z,311.41
2022-11-18T12:35:55.299Z,315.85
2022-11-18T12:38:06.193Z,298.56
2022-11-18T12:40:33.460Z,300.33
2022-11-18T12:43:00.988Z,304.51
2022-11-18T12:46:03.118Z,311.46
2022-11-18T12:48:46.255Z,317.52
2022-11-18T12:50:54.591Z,320.63
2022-11-18T12:53:00.255Z,301.05
2022-11-18T12:55:21.701Z,306.43
2022-11-18T12:57:33.189Z,293.18
2022-11-18T12:59:41.659Z,284.08
2022-11-18T13:01:48.443Z,280.65
2022-11-18T13:03:55.630Z,285.66
2022-11-18T13:06:09.547Z,297.46
2022-11-18T13:08:21.057Z,290.69
2022-11-18T13:10:35.250Z,320.26
2022-11-18T13:12:41.111Z,299.77
2022-11-18T13:15:01.292Z,286.04
2022-11-18T13:17:43.423Z,265.12
2022-11-18T13:20:01.113Z,272.85
2022-11-18T13:22:31.583Z,261.55
2022-11-18T13:24:48.882Z,247.43
2022-11-18T13:27:04.842Z,282.87
2022-11-18T13:29:38.837Z,283.53
2022-11-18T13:32:05.740Z,288.31
2022-11-18T13:34:21.792Z,288.02
2022-11-18T13:36:29.607Z,268.94
2022-11-18T13:38:35.510Z,261.15
2022-11-18T13:41:04.726Z,266.30
2022-11-18T13:43:15.565Z,288.36
2022-11-18T13:45:23.323Z,277.27
2022-11-18T13:47:44.607Z,266.23
2022-11-18T13:50:03.467Z,262.52
2022-11-18T13:52:16.292Z,265.98
2022-11-18T13:54:30.340Z,285.68
2022-11-18T13:56:37.078Z,278.82
2022-11-18T14:01:26.676Z,272.40
2022-11-18T14:03:39.862Z,250.43
2022-11-18T14:05:45.523Z,238.07
2022-11-18T14:08:09.177Z,262.39
2022-11-18T14:10:19.294Z,264.67
2022-11-18T14:12:29.196Z,257.12
2022-11-18T14:14:41.458Z,268.67
2022-11-18T14:16:47.292Z,281.86
2022-11-18T14:18:55.110Z,284.09
2022-11-18T14:21:04.616Z,291.79
2022-11-18T14:23:20.932Z,284.74
2022-11-18T14:25:34.355Z,295.55
2022-11-18T14:27:45.590Z,298.67
2022-11-18T14:29:55.805Z,301.45
2022-11-18T14:32:23.602Z,293.64
2022-11-18T14:34:31.300Z,283.08
2022-11-18T14:40:49.524Z,289.14
2022-11-18T14:42:55.241Z,302.97
2022-11-18T14:45:01.048Z,308.74
2022-11-18T14:47:27.072Z,322.23
2022-11-18T14:49:34.939Z,304.46
2022-11-18T14:51:40.722Z,307.15
2022-11-18T14:53:49.863Z,309.05
2022-11-18T14:56:01.595Z,310.83
2022-11-18T14:58:07.354Z,301.51
2022-11-18T15:00:19.830Z,286.01
2022-11-18T15:02:26.606Z,281.33
2022-11-18T15:04:32.363Z,290.09
2022-11-18T15:06:40.076Z,294.77
2022-11-18T15:08:51.642Z,283.88
2022-11-18T15:10:57.298Z,297.71
2022-11-18T15:13:04.232Z,366.97
2022-11-18T15:15:11.031Z,407.30
2022-11-18T15:17:22.474Z,305.50
2022-11-18T15:19:32.281Z,320.97
2022-11-18T15:21:38.117Z,308.88
2022-11-18T15:23:44.276Z,276.43
2022-11-18T15:25:53.462Z,278.68
2022-11-18T15:27:59.180Z,281.93
2022-11-18T15:30:05.553Z,271.91
2022-11-18T15:32:18.790Z,240.95
2022-11-18T15:34:25.001Z,238.51
2022-11-18T15:36:37.981Z,242.83
2022-11-18T15:38:56.015Z,226.60
2022-11-18T15:41:04.380Z,215.45
2022-11-18T15:43:10.216Z,200.66
2022-11-18T15:45:16.782Z,201.12
2022-11-18T15:47:22.604Z,227.62
2022-11-18T15:49:28.669Z,242.65
2022-11-18T15:51:35.330Z,228.70
2022-11-18T15:53:41.268Z,234.59
2022-11-18T15:55:47.076Z,255.52
2022-11-18T15:57:56.241Z,253.61
2022-11-18T16:00:08.111Z,231.57
2022-11-18T16:02:18.204Z,273.28
2022-11-18T16:04:24.787Z,267.98
2022-11-18T16:06:31.030Z,259.83
2022-11-18T16:08:36.709Z,276.61
2022-11-18T16:10:55.570Z,348.75
2022-11-18T16:13:03.879Z,300.63
2022-11-18T16:15:29.331Z,257.37
2022-11-18T16:17:38.202Z,250.92
2022-11-18T16:19:44.011Z,229.67
2022-11-18T16:21:53.439Z,241.46
2022-11-18T16:24:05.974Z,213.22
2022-11-18T16:26:11.750Z,216.01
2022-11-18T16:28:20.159Z,225.93
2022-11-18T16:30:39.168Z,225.58
2022-11-18T16:32:44.812Z,243.52
2022-11-18T16:34:51.795Z,240.31
2022-11-18T16:37:02.848Z,265.44
2022-11-18T16:39:32.019Z,256.34
2022-11-18T16:42:08.050Z,235.27
2022-11-18T16:44:19.498Z,244.00
2022-11-18T16:46:25.147Z,245.12
2022-11-18T16:48:30.995Z,257.38
2022-11-18T16:52:05.021Z,238.17
2022-11-18T16:54:20.990Z,251.49
2022-11-18T16:56:29.916Z,262.68
2022-11-18T16:58:42.329Z,264.68
2022-11-18T17:01:16.835Z,284.91
2022-11-18T17:03:14.517Z,287.91
2022-11-18T17:05:20.308Z,260.22
2022-11-18T17:07:31.596Z,247.10
2022-11-18T17:09:41.258Z,245.93
2022-11-18T17:11:47.434Z,252.91
2022-11-18T17:13:58.045Z,255.11
2022-11-18T17:16:07.997Z,272.62
2022-11-18T17:18:13.761Z,259.88
2022-11-18T17:20:22.238Z,229.70
2022-11-18T17:22:30.721Z,243.29
2022-11-18T17:24:36.557Z,244.75
2022-11-18T17:28:10.811Z,268.37
2022-11-18T17:30:18.148Z,250.67
2022-11-18T17:32:23.803Z,306.47
2022-11-18T17:34:29.565Z,277.62
2022-11-18T17:36:36.261Z,301.18
2022-11-18T17:38:45.120Z,311.43
2022-11-18T17:40:57.714Z,311.93
2022-11-18T17:43:01.809Z,304.95
2022-11-18T17:45:12.725Z,339.83
2022-11-18T17:47:21.240Z,344.50
2022-11-18T17:49:27.915Z,336.69
2022-11-18T17:51:34.801Z,346.84
2022-11-18T17:53:43.499Z,375.15
2022-11-18T17:55:50.832Z,312.69
2022-11-18T17:57:59.261Z,334.75
2022-11-18T18:00:05.686Z,328.01
2022-11-18T18:02:18.891Z,323.23
2022-11-18T18:04:24.976Z,317.36
2022-11-18T18:06:30.720Z,336.05
2022-11-18T18:08:37.993Z,327.30
2022-11-18T18:10:46.377Z,323.67
2022-11-18T18:13:04.640Z,287.15
2022-11-18T18:15:12.480Z,277.60
2022-11-18T18:17:21.247Z,282.07
2022-11-18T18:19:28.331Z,291.70
2022-11-18T18:21:35.861Z,278.13
2022-11-18T18:23:41.663Z,287.99
2022-11-18T18:25:47.378Z,271.72
2022-11-18T18:27:54.056Z,273.69
2022-11-18T18:29:59.810Z,258.60
2022-11-18T18:32:06.458Z,265.25
2022-11-18T18:34:15.700Z,277.10
2022-11-18T18:36:25.345Z,299.41
2022-11-18T18:38:34.533Z,285.23
2022-11-18T18:40:41.100Z,277.37
2022-11-18T18:45:01.695Z,267.99
2022-11-18T18:47:08.335Z,276.43
2022-11-18T18:49:20.631Z,293.83
2022-11-18T18:51:26.894Z,300.66
2022-11-18T18:53:34.711Z,301.20
2022-11-18T18:55:44.718Z,296.72
2022-11-18T18:57:50.857Z,296.91
2022-11-18T19:00:00.046Z,298.95
2022-11-18T19:02:06.821Z,304.56
2022-11-18T19:04:16.786Z,287.25
2022-11-18T19:06:52.003Z,271.94
2022-11-18T19:08:52.902Z,277.98
2022-11-18T19:10:58.676Z,274.59
2022-11-18T19:13:02.681Z,274.55
2022-11-18T19:15:14.039Z,271.86
2022-11-18T19:17:19.960Z,258.21
2022-11-18T19:19:42.901Z,234.52
2022-11-18T19:21:50.217Z,243.16
2022-11-18T19:23:56.803Z,258.34
2022-11-18T19:26:03.536Z,251.71
2022-11-18T19:28:09.313Z,242.53
2022-11-18T19:30:17.956Z,253.88
2022-11-18T19:32:24.619Z,269.24
2022-11-18T19:34:30.350Z,270.84
2022-11-18T19:36:37.432Z,276.53
2022-11-18T19:38:44.537Z,234.03
2022-11-18T19:40:50.490Z,206.66
2022-11-18T19:42:56.867Z,209.74
2022-11-18T19:45:03.481Z,213.79
2022-11-18T19:47:11.920Z,203.16
2022-11-18T19:49:18.070Z,191.66
2022-11-18T19:51:26.107Z,190.55
2022-11-18T19:53:39.264Z,193.82
2022-11-18T19:55:45.016Z,191.45
2022-11-18T19:57:51.731Z,179.70
2022-11-18T19:59:57.545Z,179.70
2022-11-18T20:02:03.705Z,189.65
2022-11-18T20:04:12.962Z,198.21
2022-11-18T20:06:20.659Z,197.47
2022-11-18T20:08:28.233Z,208.54
2022-11-18T20:10:35.090Z,216.79
2022-11-18T20:12:40.942Z,216.50
2022-11-18T20:14:46.698Z,220.75
2022-11-18T20:16:54.599Z,210.87
2022-11-18T20:19:09.315Z,196.94
2022-11-18T20:21:23.037Z,212.64
2022-11-18T20:23:29.513Z,207.45
2022-11-18T20:25:35.287Z,206.63
2022-11-18T20:27:41.166Z,189.74
2022-11-18T20:29:48.448Z,193.62
2022-11-18T20:31:55.287Z,181.97
2022-11-18T20:34:01.107Z,194.59
2022-11-18T20:36:10.501Z,182.39
2022-11-18T20:38:18.910Z,189.62
2022-11-18T20:40:24.652Z,168.22
2022-11-18T20:42:44.221Z,169.36
2022-11-18T20:44:50.334Z,163.68
2022-11-18T20:46:56.072Z,153.92
2022-11-18T20:49:19.541Z,158.54
2022-11-18T20:51:29.061Z,145.58
2022-11-18T20:53:38.943Z,157.99
2022-11-18T20:55:44.917Z,162.55
2022-11-18T20:57:51.663Z,163.63
2022-11-18T20:59:57.497Z,154.40
2022-11-18T21:02:03.488Z,169.74
2022-11-18T21:04:10.071Z,173.44
2022-11-18T21:06:17.880Z,172.70
2022-11-18T21:08:23.706Z,174.70
2022-11-18T21:10:33.568Z,161.67
2022-11-18T21:12:59.368Z,166.37
2022-11-18T21:15:02.914Z,166.25
2022-11-18T21:17:09.539Z,168.30
2022-11-18T21:19:16.807Z,163.08
2022-11-18T21:21:40.689Z,162.70
2022-11-18T21:23:47.356Z,175.24
2022-11-18T21:25:55.940Z,185.61
2022-11-18T21:28:02.093Z,186.37
2022-11-18T21:30:10.817Z,185.77
2022-11-18T21:32:19.067Z,188.90
2022-11-18T21:34:25.627Z,178.04
2022-11-18T21:36:32.654Z,183.54
2022-11-18T21:38:38.445Z,182.52
2022-11-18T21:40:44.297Z,168.48
2022-11-18T21:42:58.128Z,166.59
2022-11-18T21:45:03.946Z,174.40
2022-11-18T21:47:09.650Z,172.05
2022-11-18T21:49:16.612Z,177.40
2022-11-18T21:51:25.462Z,155.13
2022-11-18T21:53:32.069Z,158.69
2022-11-18T21:55:38.629Z,172.48
2022-11-18T21:57:44.612Z,162.59
2022-11-18T21:59:56.296Z,153.33
2022-11-18T22:02:02.833Z,154.53
2022-11-18T22:04:29.077Z,156.08
2022-11-18T22:06:37.153Z,147.41
2022-11-18T22:08:45.391Z,169.43
2022-11-18T22:10:51.144Z,165.42
2022-11-18T22:12:56.939Z,156.68
2022-11-18T22:15:06.273Z,159.60
2022-11-18T22:17:12.521Z,168.41
2022-11-18T22:19:18.170Z,170.79
2022-11-18T22:21:26.672Z,169.37
2022-11-18T22:23:35.443Z,167.20
2022-11-18T22:25:41.244Z,169.08
2022-11-18T22:27:47.748Z,170.82
2022-11-18T22:29:53.498Z,166.37
2022-11-18T22:32:02.070Z,164.39
2022-11-18T22:34:08.726Z,174.82
2022-11-18T22:36:17.998Z,179.76
2022-11-18T22:38:23.704Z,182.00
2022-11-18T22:40:30.362Z,186.22
2022-11-18T22:42:48.337Z,190.35
2022-11-18T22:44:54.090Z,190.83
2022-11-18T22:47:03.293Z,192.53
2022-11-18T22:49:10.921Z,194.78
2022-11-18T22:51:16.690Z,194.66
2022-11-18T22:53:23.334Z,199.96
2022-11-18T22:55:29.094Z,201.22
2022-11-18T22:57:36.962Z,208.61
2022-11-18T22:59:43.584Z,212.77
2022-11-18T23:01:49.350Z,214.60
2022-11-18T23:03:57.723Z,218.30
2022-11-18T23:06:06.236Z,216.43
2022-11-18T23:08:11.938Z,221.37
2022-11-18T23:10:17.896Z,212.76
2022-11-18T23:12:36.897Z,221.68
2022-11-18T23:14:42.690Z,227.61
2022-11-18T23:16:48.634Z,221.27
2022-11-18T23:18:57.728Z,207.26
2022-11-18T23:21:05.891Z,208.30
2022-11-18T23:23:11.616Z,204.44
2022-11-18T23:25:18.441Z,198.65
2022-11-18T23:27:24.132Z,211.83
2022-11-18T23:29:30.051Z,213.70
2022-11-18T23:31:37.097Z,204.35
2022-11-18T23:33:44.570Z,207.80
2022-11-18T23:35:57.872Z,205.47
2022-11-18T23:38:04.406Z,204.30
2022-11-18T23:40:12.536Z,206.54
2022-11-18T23:42:18.217Z,202.12
2022-11-18T23:44:45.032Z,207.83
2022-11-18T23:46:50.730Z,202.59
2022-11-18T23:48:57.059Z,206.90
2022-11-18T23:51:09.642Z,190.32
2022-11-18T23:53:15.378Z,190.82
2022-11-18T23:55:21.114Z,192.64
2022-11-18T23:57:30.545Z,198.07
2022-11-18T23:59:36.756Z,199.88
